Time;durP1;ratioP1;P1;durP2;ratioP2;P2;SDS_P1;SDS_P2;PMS_P1;PMS_P2;Temp;Humidity;BMP_temperature;BMP_pressure;BME280_temperature;BME280_humidity;BME280_pressure;Samples;Min_cycle;Max_cycle;Signal;HPM_P1;HPM_P2
2022/06/14 00:01:29;;;;;;;;;;;;;;;17.40;60.14;99945.09;4379354;32;20001;-89
2022/06/14 00:03:57;;;;;;;;;;;;;;;17.35;60.13;99945.38;4389401;32;20700;-89
2022/06/14 00:06:23;;;;;;;;;;;;;;;17.20;60.13;99946.22;4389281;32;19987;-88
2022/06/14 00:08:48;;;;;;;;;;;;;;;17.12;60.12;99948.44;4386981;32;20331;-87
2022/06/14 00:11:16;;;;;;;;;;;;;;;16.81;60.10;99946.66;4379241;32;20331;-88
2022/06/14 00:13:41;;;;;;;;;;;;;;;16.54;60.08;99949.78;4366666;32;20008;-87
2022/06/14 00:16:06;;;;;;;;;;;;;;;16.40;60.09;99949.69;4400569;32;20303;-88
2022/06/14 00:18:32;;;;;;;;;;;;;;;16.43;60.08;99944.25;4382126;32;20017;-88
2022/06/14 00:20:57;;;;;;;;;;;;;;;16.55;60.09;99953.25;4376702;32;20312;-88
2022/06/14 00:23:22;;;;;;;;;;;;;;;16.46;60.10;99946.72;4389079;32;20010;-88
2022/06/14 00:25:48;;;;;;;;;;;;;;;16.41;60.08;99946.13;4388986;32;20022;-88
2022/06/14 00:28:14;;;;;;;;;;;;;;;16.42;60.09;99960.97;4385414;32;19994;-87
2022/06/14 00:30:40;;;;;;;;;;;;;;;16.16;60.08;99956.22;4379134;32;19982;-87
2022/06/14 00:33:05;;;;;;;;;;;;;;;16.03;60.07;99963.84;4389087;32;19982;-88
2022/06/14 00:35:30;;;;;;;;;;;;;;;15.98;60.06;99971.13;4390133;32;19974;-87
2022/06/14 00:37:56;;;;;;;;;;;;;;;15.88;60.06;99978.63;4379232;32;19990;-87
2022/06/14 00:40:22;;;;;;;;;;;;;;;15.88;60.06;99975.16;4366519;32;19990;-88
2022/06/14 00:42:47;;;;;;;;;;;;;;;15.86;60.06;99980.47;4379021;32;20335;-87
2022/06/14 00:45:12;;;;;;;;;;;;;;;15.81;60.06;99992.97;4378674;32;19989;-86
2022/06/14 00:47:56;;;;;;;;;;;;;;;15.82;60.05;99980.69;4393049;32;20121;-87
2022/06/14 00:50:26;;;;;;;;;;;;;;;15.81;60.05;99979.00;4393362;32;20001;-87
2022/06/14 00:52:56;;;;;;;;;;;;;;;15.86;60.06;99985.72;4379297;32;19967;-87
2022/06/14 00:55:26;;;;;;;;;;;;;;;15.76;60.05;99996.75;4366644;32;19986;-87
2022/06/14 00:57:55;;;;;;;;;;;;;;;15.89;60.06;100000.47;4379142;32;20331;-87
2022/06/14 01:00:22;;;;;;;;;;;;;;;16.02;60.07;99996.28;4379356;32;19994;-87
2022/06/14 01:02:51;;;;;;;;;;;;;;;16.05;60.06;100006.63;4366433;32;20032;-87
2022/06/14 01:05:27;;;;;;;;;;;;;;;16.09;60.07;100009.94;4378938;32;19982;-87
2022/06/14 01:07:53;;;;;;;;;;;;;;;16.06;60.06;100015.38;4378830;32;19999;-88
2022/06/14 01:10:28;;;;;;;;;;;;;;;16.02;60.07;100013.81;4378849;32;20322;-87
2022/06/14 01:12:54;;;;;;;;;;;;;;;16.23;60.08;100012.75;4379107;32;19983;-87
2022/06/14 01:15:21;;;;;;;;;;;;;;;16.30;60.07;100008.03;4378837;32;19978;-87
2022/06/14 01:17:47;;;;;;;;;;;;;;;16.30;60.07;100010.66;4378924;32;20002;-88
2022/06/14 01:20:14;;;;;;;;;;;;;;;16.12;60.06;100013.31;4366353;32;19986;-86
2022/06/14 01:22:39;;;;;;;;;;;;;;;16.00;60.07;100013.91;4392561;32;19987;-87
2022/06/14 01:25:04;;;;;;;;;;;;;;;15.97;60.06;100014.06;4391975;32;19967;-88
2022/06/14 01:27:33;;;;;;;;;;;;;;;15.85;60.05;100014.66;4396595;32;19989;-88
2022/06/14 01:30:25;;;;;;;;;;;;;;;15.86;60.06;100019.84;4371967;32;19998;-87
2022/06/14 01:33:00;;;;;;;;;;;;;;;15.95;60.06;100021.16;4389471;32;19978;-87
2022/06/14 01:35:27;;;;;;;;;;;;;;;15.93;60.06;100026.50;4378564;32;20628;-87
2022/06/14 01:37:52;;;;;;;;;;;;;;;15.89;60.06;100029.34;4366249;32;20002;-87
2022/06/14 01:40:19;;;;;;;;;;;;;;;15.78;60.04;100034.25;4378734;32;19998;-88
2022/06/14 01:42:44;;;;;;;;;;;;;;;15.75;60.05;100039.66;4365992;32;19989;-87
2022/06/14 01:45:21;;;;;;;;;;;;;;;15.55;60.04;100036.19;4392411;32;20006;-87
2022/06/14 01:47:48;;;;;;;;;;;;;;;15.56;60.04;100042.28;4392077;32;19987;-87
2022/06/14 01:53:13;;;;;;;;;;;;;;;15.62;60.04;100058.66;4394746;32;20032;-86
2022/06/14 01:55:39;;;;;;;;;;;;;;;15.59;60.04;100053.50;4391995;32;20034;-88
2022/06/14 01:58:07;;;;;;;;;;;;;;;15.53;60.03;100051.16;4392790;32;20037;-88
2022/06/14 02:00:34;;;;;;;;;;;;;;;15.49;60.03;100060.09;4380130;32;20008;-87
2022/06/14 02:05:54;;;;;;;;;;;;;;;15.83;60.05;100059.34;4394059;32;19989;-86
2022/06/14 02:08:20;;;;;;;;;;;;;;;15.82;60.05;100064.69;4379992;32;20048;-87
2022/06/14 02:10:52;;;;;;;;;;;;;;;15.70;60.05;100068.75;4380164;32;19990;-87
2022/06/14 02:13:20;;;;;;;;;;;;;;;15.46;60.02;100067.28;4390644;32;20095;-87
2022/06/14 02:15:45;;;;;;;;;;;;;;;15.44;60.03;100069.97;4380146;32;20251;-87
2022/06/14 02:18:28;;;;;;;;;;;;;;;15.44;60.03;100064.72;4389950;32;20005;-87
2022/06/14 02:20:56;;;;;;;;;;;;;;;15.40;60.03;100059.69;4383243;32;20046;-88
2022/06/14 02:23:22;;;;;;;;;;;;;;;15.50;60.04;100058.31;4367457;32;19982;-87
2022/06/14 02:25:55;;;;;;;;;;;;;;;15.41;60.03;100051.75;4379655;32;19982;-88
2022/06/14 02:28:23;;;;;;;;;;;;;;;15.36;60.03;100049.31;4393698;32;19995;-87
2022/06/14 02:30:49;;;;;;;;;;;;;;;15.35;60.03;100058.13;4389890;32;19987;-87
2022/06/14 02:33:19;;;;;;;;;;;;;;;15.32;60.03;100060.03;4385708;32;19982;-86
2022/06/14 02:35:46;;;;;;;;;;;;;;;15.16;60.01;100059.06;4379741;32;20349;-89
2022/06/14 02:38:15;;;;;;;;;;;;;;;15.18;60.02;100060.69;4379867;32;19999;-88
2022/06/14 02:40:44;;;;;;;;;;;;;;;15.28;60.02;100056.72;4379966;32;20038;-87
2022/06/14 02:43:10;;;;;;;;;;;;;;;15.29;60.02;100053.16;4367392;32;20038;-88
2022/06/14 02:45:39;;;;;;;;;;;;;;;15.25;60.03;100066.50;4390279;32;19982;-89
2022/06/14 02:48:05;;;;;;;;;;;;;;;15.20;60.01;100061.47;4367319;32;20008;-89
2022/06/14 02:50:34;;;;;;;;;;;;;;;15.35;60.03;100062.50;4367595;32;19987;-88
2022/06/14 02:53:08;;;;;;;;;;;;;;;15.13;60.01;100069.66;4389769;32;20419;-88
2022/06/14 02:55:43;;;;;;;;;;;;;;;15.25;60.02;100080.47;4389858;32;19974;-89
2022/06/14 02:58:14;;;;;;;;;;;;;;;15.24;60.02;100083.16;4369305;32;20363;-88
2022/06/14 03:00:42;;;;;;;;;;;;;;;15.21;60.02;100088.53;4379797;32;20044;-87
2022/06/14 03:03:10;;;;;;;;;;;;;;;15.17;60.02;100093.06;4379716;32;20327;-87
2022/06/14 03:05:36;;;;;;;;;;;;;;;15.10;60.01;100083.75;4379695;32;19993;-89
2022/06/14 03:08:05;;;;;;;;;;;;;;;15.19;60.02;100090.38;4367095;32;19990;-88
2022/06/14 03:10:43;;;;;;;;;;;;;;;15.39;60.02;100090.31;4379818;32;20041;-88
2022/06/14 03:13:11;;;;;;;;;;;;;;;15.44;60.03;100077.84;4367290;32;20045;-88
2022/06/14 03:15:44;;;;;;;;;;;;;;;15.45;60.03;100079.53;4367003;32;20042;-87
2022/06/14 03:18:28;;;;;;;;;;;;;;;15.39;60.02;100087.69;4379602;32;19983;-86
2022/06/14 03:20:58;;;;;;;;;;;;;;;15.44;60.03;100090.97;4393565;32;20000;-87
2022/06/14 03:23:23;;;;;;;;;;;;;;;15.46;60.03;100083.84;4367313;32;19984;-87
2022/06/14 03:26:07;;;;;;;;;;;;;;;15.36;60.02;100085.19;4389502;32;20002;-87
2022/06/14 03:28:39;;;;;;;;;;;;;;;15.43;60.03;100075.28;4399645;32;20013;-87
2022/06/14 03:31:10;;;;;;;;;;;;;;;15.43;60.03;100088.41;4393144;32;20037;-89
2022/06/14 03:33:42;;;;;;;;;;;;;;;15.45;60.03;100083.94;4366926;32;20378;-88
2022/06/14 03:36:08;;;;;;;;;;;;;;;15.53;60.03;100085.25;4379254;32;20001;-87
2022/06/14 03:38:34;;;;;;;;;;;;;;;15.48;60.03;100096.91;4379104;32;20114;-87
2022/06/14 03:40:59;;;;;;;;;;;;;;;15.62;60.04;100089.28;4379253;32;19990;-89
2022/06/14 03:43:25;;;;;;;;;;;;;;;15.68;60.04;100088.97;4366491;32;20823;-88
2022/06/14 03:46:09;;;;;;;;;;;;;;;15.67;60.04;100091.69;4366039;32;24639;-89
2022/06/14 03:48:35;;;;;;;;;;;;;;;15.77;60.03;100093.78;4393402;32;20001;-89
2022/06/14 03:51:20;;;;;;;;;;;;;;;15.81;60.05;100097.97;4366965;32;19995;-86
2022/06/14 03:53:50;;;;;;;;;;;;;;;15.73;60.04;100104.50;4379342;32;20379;-87
2022/06/14 03:56:34;;;;;;;;;;;;;;;15.69;60.04;100111.69;4379075;32;20308;-86
2022/06/14 03:59:15;;;;;;;;;;;;;;;15.87;60.05;100112.59;4393050;32;20036;-85
2022/06/14 04:01:51;;;;;;;;;;;;;;;15.89;60.05;100118.63;4366474;32;20006;-89
2022/06/14 04:04:26;;;;;;;;;;;;;;;16.00;60.07;100121.56;4366617;32;20354;-89
2022/06/14 04:06:57;;;;;;;;;;;;;;;16.12;60.07;100120.97;4366590;32;20252;-86
2022/06/14 04:09:36;;;;;;;;;;;;;;;16.08;60.06;100116.78;4392669;32;19979;-88
2022/06/14 04:12:24;;;;;;;;;;;;;;;16.22;60.06;100124.00;4378838;32;19998;-87
2022/06/14 04:14:58;;;;;;;;;;;;;;;16.36;60.07;100118.91;4384714;32;19986;-88
2022/06/14 04:17:33;;;;;;;;;;;;;;;16.28;60.07;100134.19;4389108;32;19987;-88
2022/06/14 04:19:58;;;;;;;;;;;;;;;16.13;60.06;100133.19;4388543;32;20037;-88
2022/06/14 04:22:46;;;;;;;;;;;;;;;15.98;60.05;100127.81;4390987;32;19991;-87
2022/06/14 04:25:26;;;;;;;;;;;;;;;16.05;60.06;100135.31;4366486;32;19986;-87
2022/06/14 04:28:12;;;;;;;;;;;;;;;16.22;60.06;100132.72;4393107;32;20086;-88
2022/06/14 04:30:58;;;;;;;;;;;;;;;16.39;60.07;100134.53;4392126;32;19996;-90
2022/06/14 04:33:23;;;;;;;;;;;;;;;16.73;60.10;100138.09;4366474;32;20044;-87
2022/06/14 04:35:52;;;;;;;;;;;;;;;16.73;60.10;100145.97;4392611;32;20284;-85
2022/06/14 04:38:21;;;;;;;;;;;;;;;16.73;60.09;100141.56;4392689;32;20030;-86
2022/06/14 04:40:53;;;;;;;;;;;;;;;16.84;60.10;100138.41;4378758;32;19998;-86
2022/06/14 04:43:19;;;;;;;;;;;;;;;17.06;60.11;100144.25;4392669;32;19978;-86
2022/06/14 04:45:45;;;;;;;;;;;;;;;17.12;60.12;100149.19;4378669;32;19994;-86
2022/06/14 04:48:21;;;;;;;;;;;;;;;17.23;60.12;100145.13;4392706;32;20337;-86
2022/06/14 04:50:48;;;;;;;;;;;;;;;17.37;60.12;100156.63;4366202;32;19994;-86
2022/06/14 04:53:17;;;;;;;;;;;;;;;17.58;60.14;100153.78;4378935;32;20505;-86
2022/06/14 04:55:48;;;;;;;;;;;;;;;17.56;60.15;100160.91;4392543;32;19975;-86
2022/06/14 04:58:16;;;;;;;;;;;;;;;17.55;60.13;100156.59;4378867;32;20020;-86
2022/06/14 05:01:01;;;;;;;;;;;;;;;17.73;60.15;100158.22;4392700;32;19978;-86
2022/06/14 05:03:27;;;;;;;;;;;;;;;17.98;60.16;100158.59;4366393;32;20050;-86
2022/06/14 05:05:54;;;;;;;;;;;;;;;18.09;60.17;100158.81;4378446;32;20031;-85
2022/06/14 05:08:38;;;;;;;;;;;;;;;18.06;60.17;100161.63;4378649;32;20045;-86
2022/06/14 05:11:11;;;;;;;;;;;;;;;17.92;60.16;100166.81;4378665;32;20016;-85
2022/06/14 05:14:00;;;;;;;;;;;;;;;18.10;60.17;100168.41;4378453;32;19995;-86
2022/06/14 05:16:31;;;;;;;;;;;;;;;17.89;60.16;100174.88;4370498;32;20368;-87
2022/06/14 05:19:26;;;;;;;;;;;;;;;17.79;60.15;100179.81;4366110;32;20037;-86
2022/06/14 05:21:53;;;;;;;;;;;;;;;17.79;60.16;100184.25;4365463;32;19987;-85
2022/06/14 05:24:18;;;;;;;;;;;;;;;17.82;60.16;100183.22;4378673;32;20060;-86
2022/06/14 05:26:51;;;;;;;;;;;;;;;17.98;60.16;100184.03;4365792;32;19982;-85
2022/06/14 05:29:22;;;;;;;;;;;;;;;18.19;60.18;100179.37;4365964;32;19974;-85
2022/06/14 05:31:58;;;;;;;;;;;;;;;18.14;60.17;100184.91;4377491;32;19990;-85
2022/06/14 05:34:32;;;;;;;;;;;;;;;18.11;60.17;100185.06;4388127;32;19983;-85
2022/06/14 05:36:59;;;;;;;;;;;;;;;18.30;60.18;100184.91;4387326;32;20009;-86
2022/06/14 05:39:29;;;;;;;;;;;;;;;18.39;60.20;100181.72;4365590;32;20014;-84
2022/06/14 05:42:16;;;;;;;;;;;;;;;18.45;60.19;100185.78;4378044;32;20016;-84
2022/06/14 05:44:42;;;;;;;;;;;;;;;18.46;60.19;100185.72;4365640;32;19986;-85
2022/06/14 05:47:27;;;;;;;;;;;;;;;18.62;60.20;100181.28;4378183;32;19979;-85
2022/06/14 05:49:54;;;;;;;;;;;;;;;18.77;60.20;100178.69;4381167;32;20335;-84
2022/06/14 05:52:19;;;;;;;;;;;;;;;18.94;60.22;100174.12;4392102;32;19987;-86
2022/06/14 05:54:46;;;;;;;;;;;;;;;18.89;60.21;100178.78;4391802;32;20221;-85
2022/06/14 05:57:14;;;;;;;;;;;;;;;19.12;60.22;100171.28;4378214;32;20083;-85
2022/06/14 05:59:47;;;;;;;;;;;;;;;19.20;60.23;100185.75;4378126;32;20397;-86
2022/06/14 06:02:21;;;;;;;;;;;;;;;19.07;60.22;100187.41;4377942;32;20051;-85
2022/06/14 06:04:49;;;;;;;;;;;;;;;19.22;60.23;100185.66;4377835;32;20005;-85
2022/06/14 06:07:14;;;;;;;;;;;;;;;19.33;60.24;100185.81;4365459;32;19990;-84
2022/06/14 06:09:41;;;;;;;;;;;;;;;19.30;60.23;100192.16;4391801;32;20050;-85
2022/06/14 06:12:21;;;;;;;;;;;;;;;19.26;60.23;100188.00;4402400;32;19983;-85
2022/06/14 06:14:47;;;;;;;;;;;;;;;19.35;60.24;100191.84;4391783;32;20855;-85
2022/06/14 06:17:17;;;;;;;;;;;;;;;19.44;60.24;100190.47;4377749;32;19982;-85
2022/06/14 06:19:42;;;;;;;;;;;;;;;19.61;60.24;100195.56;4377713;32;19979;-85
2022/06/14 06:22:21;;;;;;;;;;;;;;;19.59;60.25;100192.16;4391579;32;20004;-86
2022/06/14 06:24:48;;;;;;;;;;;;;;;19.74;60.26;100196.50;4377603;32;20378;-86
2022/06/14 06:27:13;;;;;;;;;;;;;;;19.88;60.26;100203.56;4387704;32;20003;-85
2022/06/14 06:29:40;;;;;;;;;;;;;;;19.73;60.26;100201.88;4383063;32;20694;-85
2022/06/14 06:32:06;;;;;;;;;;;;;;;19.82;60.26;100202.16;4377678;32;20051;-86
2022/06/14 06:34:31;;;;;;;;;;;;;;;19.96;60.27;100209.22;4391490;32;20371;-85
2022/06/14 06:37:11;;;;;;;;;;;;;;;20.10;60.28;100201.22;4391269;32;19971;-85
2022/06/14 06:39:55;;;;;;;;;;;;;;;20.34;60.29;100205.88;4377530;32;19982;-86
2022/06/14 06:42:29;;;;;;;;;;;;;;;20.53;60.29;100207.25;4392866;32;20268;-85
2022/06/14 06:44:54;;;;;;;;;;;;;;;20.45;60.29;100206.94;4401204;32;20343;-85
2022/06/14 06:47:35;;;;;;;;;;;;;;;21.00;60.32;100205.03;4393488;32;20061;-85
2022/06/14 06:50:20;;;;;;;;;;;;;;;21.08;60.33;100200.09;4393481;32;19989;-86
2022/06/14 06:52:48;;;;;;;;;;;;;;;21.42;60.34;100204.78;4379637;32;20014;-86
2022/06/14 06:55:17;;;;;;;;;;;;;;;21.50;60.35;100200.72;4393329;32;19995;-86
2022/06/14 06:57:42;;;;;;;;;;;;;;;21.61;60.35;100199.03;4367082;32;20458;-86
2022/06/14 07:00:09;;;;;;;;;;;;;;;21.68;60.36;100197.63;4379885;32;20017;-86
2022/06/14 07:02:45;;;;;;;;;;;;;;;21.67;60.36;100198.59;4379593;32;20016;-85
2022/06/14 07:05:14;;;;;;;;;;;;;;;21.49;60.35;100207.81;4379715;32;19995;-85
2022/06/14 07:07:42;;;;;;;;;;;;;;;21.60;60.35;100199.16;4379961;32;20338;-85
2022/06/14 07:10:19;;;;;;;;;;;;;;;21.54;60.34;100207.53;4395504;32;19970;-85
2022/06/14 07:12:46;;;;;;;;;;;;;;;21.50;60.35;100201.56;4386992;32;19991;-85
2022/06/14 07:15:13;;;;;;;;;;;;;;;21.41;60.35;100199.59;4379639;32;19986;-85
2022/06/14 07:17:51;;;;;;;;;;;;;;;21.40;60.35;100193.44;4379477;32;19974;-86
2022/06/14 07:20:18;;;;;;;;;;;;;;;21.53;60.35;100196.09;4393306;32;19986;-86
2022/06/14 07:22:46;;;;;;;;;;;;;;;21.82;60.37;100209.06;4393348;32;20005;-85
2022/06/14 07:25:19;;;;;;;;;;;;;;;21.73;60.36;100203.44;4379559;32;20499;-85
2022/06/14 07:28:02;;;;;;;;;;;;;;;21.63;60.35;100204.22;4379557;32;20368;-86
2022/06/14 07:30:35;;;;;;;;;;;;;;;21.73;60.36;100207.91;4366952;32;19997;-86
2022/06/14 07:33:00;;;;;;;;;;;;;;;21.86;60.36;100203.44;4379551;32;20021;-85
2022/06/14 07:35:26;;;;;;;;;;;;;;;22.10;60.39;100208.81;4366785;32;19994;-86
2022/06/14 07:38:08;;;;;;;;;;;;;;;22.32;60.39;100200.13;4379343;32;19983;-85
2022/06/14 07:40:34;;;;;;;;;;;;;;;22.32;60.39;100198.34;4366748;32;19975;-87
2022/06/14 07:43:03;;;;;;;;;;;;;;;22.42;60.41;100206.44;4366942;32;20427;-85
2022/06/14 07:45:35;;;;;;;;;;;;;;;22.57;60.41;100207.13;4389345;32;20344;-85
2022/06/14 07:48:19;;;;;;;;;;;;;;;22.57;60.41;100209.78;4381903;32;19997;-85
2022/06/14 07:50:45;;;;;;;;;;;;;;;22.90;60.43;100198.44;4390023;32;19983;-87
2022/06/14 07:53:12;;;;;;;;;;;;;;;23.11;60.43;100191.50;4379427;32;19991;-86
2022/06/14 07:55:42;;;;;;;;;;;;;;;23.10;60.43;100203.09;4378229;32;19986;-86
2022/06/14 07:58:12;;;;;;;;;;;;;;;23.27;60.45;100200.00;4379308;32;19992;-86
2022/06/14 08:03:28;;;;;;;;;;;;;;;23.32;60.44;100202.28;4381592;32;20029;-86
2022/06/14 08:05:54;;;;;;;;;;;;;;;23.37;60.45;100193.94;4379251;32;20362;-86
2022/06/14 08:08:29;;;;;;;;;;;;;;;23.84;60.47;100190.22;4379358;32;20002;-86
2022/06/14 08:10:57;;;;;;;;;;;;;;;23.79;60.47;100195.06;4379189;32;19997;-86
2022/06/14 08:13:33;;;;;;;;;;;;;;;23.73;60.48;100193.75;4366611;32;20347;-87
2022/06/14 08:15:59;;;;;;;;;;;;;;;23.98;60.48;100189.97;4379327;32;20054;-86
2022/06/14 08:18:26;;;;;;;;;;;;;;;24.04;60.48;100189.47;4392878;32;19978;-86
2022/06/14 08:20:56;;;;;;;;;;;;;;;23.83;60.48;100194.69;4379271;32;19978;-86
2022/06/14 08:23:40;;;;;;;;;;;;;;;23.74;60.48;100194.59;4393073;32;20048;-85
2022/06/14 08:26:18;;;;;;;;;;;;;;;23.87;60.48;100189.97;4393117;32;20366;-86
2022/06/14 08:28:46;;;;;;;;;;;;;;;23.91;60.48;100186.13;4366815;32;20373;-86
2022/06/14 08:31:17;;;;;;;;;;;;;;;24.04;60.48;100193.94;4393119;32;19978;-86
2022/06/14 08:33:53;;;;;;;;;;;;;;;24.26;60.50;100195.69;4379375;32;19959;-86
2022/06/14 08:36:23;;;;;;;;;;;;;;;24.33;60.51;100186.28;4366722;32;19990;-86
2022/06/14 08:38:50;;;;;;;;;;;;;;;24.64;60.51;100187.25;4379842;32;19993;-86
2022/06/14 08:41:18;;;;;;;;;;;;;;;24.92;60.53;100191.94;4402913;32;20030;-86
2022/06/14 08:43:44;;;;;;;;;;;;;;;24.98;60.53;100190.56;4392879;32;19975;-86
2022/06/14 08:46:11;;;;;;;;;;;;;;;25.19;60.55;100183.44;4378808;32;19994;-86
2022/06/14 08:48:41;;;;;;;;;;;;;;;25.23;60.56;100181.34;4392716;32;20057;-86
2022/06/14 08:51:12;;;;;;;;;;;;;;;24.92;60.54;100188.44;4378930;32;19982;-87
2022/06/14 08:53:41;;;;;;;;;;;;;;;24.84;60.53;100198.88;4392720;32;19995;-85
2022/06/14 08:56:24;;;;;;;;;;;;;;;24.90;60.54;100188.56;4392631;32;19986;-86
2022/06/14 08:58:55;;;;;;;;;;;;;;;25.18;60.55;100189.75;4392746;32;19966;-86
2022/06/14 09:01:33;;;;;;;;;;;;;;;25.29;60.55;100196.81;4378872;32;19997;-86
2022/06/14 09:03:58;;;;;;;;;;;;;;;25.42;60.56;100186.78;4392723;32;19986;-86
2022/06/14 09:06:42;;;;;;;;;;;;;;;25.54;60.57;100184.84;4388452;32;20038;-86
2022/06/14 09:09:10;;;;;;;;;;;;;;;25.83;60.58;100183.19;4385755;32;19970;-86
2022/06/14 09:11:49;;;;;;;;;;;;;;;25.60;60.57;100181.69;4403005;32;19971;-86
2022/06/14 09:14:23;;;;;;;;;;;;;;;25.52;60.57;100192.16;4378709;32;19990;-87
2022/06/14 09:16:51;;;;;;;;;;;;;;;25.48;60.57;100196.06;4392426;32;19993;-86
2022/06/14 09:19:19;;;;;;;;;;;;;;;25.73;60.59;100179.63;4392436;32;20327;-86
2022/06/14 09:21:47;;;;;;;;;;;;;;;25.41;60.57;100182.44;4392406;32;19975;-86
2022/06/14 09:24:15;;;;;;;;;;;;;;;25.24;60.56;100183.03;4388496;32;19983;-86
2022/06/14 09:26:53;;;;;;;;;;;;;;;25.22;60.56;100175.19;4385914;32;20006;-87
2022/06/14 09:29:18;;;;;;;;;;;;;;;25.61;60.59;100180.69;4392338;32;19992;-85
2022/06/14 09:31:52;;;;;;;;;;;;;;;25.41;60.57;100182.44;4392450;32;19997;-86
2022/06/14 09:34:31;;;;;;;;;;;;;;;25.44;60.58;100179.50;4392229;32;20000;-86
2022/06/14 09:37:15;;;;;;;;;;;;;;;25.62;60.58;100169.06;4378464;32;20048;-87
2022/06/14 09:39:48;;;;;;;;;;;;;;;25.76;60.58;100179.34;4388630;32;19997;-87
2022/06/14 09:42:20;;;;;;;;;;;;;;;25.99;60.60;100175.50;4389236;32;19997;-87
2022/06/14 09:45:21;;;;;;;;;;;;;;;25.75;60.59;100175.00;4388398;32;19979;-87
2022/06/14 09:47:49;;;;;;;;;;;;;;;25.77;60.60;100182.87;4331572;33;20079;-87
2022/06/14 09:50:33;;;;;;;;;;;;;;;25.65;60.58;100168.78;4381767;32;20410;-86
2022/06/14 09:53:05;;;;;;;;;;;;;;;25.73;60.59;100165.47;4388119;32;19997;-86
2022/06/14 09:55:33;;;;;;;;;;;;;;;25.86;60.59;100177.59;4385994;32;20030;-87
2022/06/14 09:58:06;;;;;;;;;;;;;;;25.76;60.58;100167.84;4391967;32;19997;-86
2022/06/14 10:00:36;;;;;;;;;;;;;;;25.61;60.59;100170.88;4378185;32;19975;-86
2022/06/14 10:03:04;;;;;;;;;;;;;;;25.48;60.58;100172.91;4391897;32;20021;-86
2022/06/14 10:05:33;;;;;;;;;;;;;;;25.39;60.57;100171.06;4391866;32;20057;-87
2022/06/14 10:08:17;;;;;;;;;;;;;;;25.30;60.57;100169.19;4378057;32;20002;-86
2022/06/14 10:10:55;;;;;;;;;;;;;;;25.01;60.55;100174.34;4397632;32;20341;-86
2022/06/14 10:13:33;;;;;;;;;;;;;;;25.15;60.56;100182.03;4381771;32;20243;-86
2022/06/14 10:16:07;;;;;;;;;;;;;;;25.43;60.57;100166.31;4378208;32;20009;-86
2022/06/14 10:18:51;;;;;;;;;;;;;;;25.54;60.58;100164.38;4389853;32;20001;-86
2022/06/14 10:21:17;;;;;;;;;;;;;;;25.49;60.58;100174.59;4393976;32;19974;-87
2022/06/14 10:23:58;;;;;;;;;;;;;;;25.53;60.59;100173.34;4367200;32;19986;-87
2022/06/14 10:29:32;;;;;;;;;;;;;;;25.25;60.57;100166.91;4393879;32;19997;-87
2022/06/14 10:32:16;;;;;;;;;;;;;;;25.58;60.58;100152.50;4380163;32;20025;-87
2022/06/14 10:34:44;;;;;;;;;;;;;;;25.81;60.60;100147.81;4393593;32;19977;-86
2022/06/14 10:37:25;;;;;;;;;;;;;;;25.21;60.57;100160.16;4379724;32;20013;-87
2022/06/14 10:40:11;;;;;;;;;;;;;;;25.04;60.55;100158.09;4393556;32;20046;-87
2022/06/14 10:42:55;;;;;;;;;;;;;;;25.07;60.56;100152.50;4367197;32;19985;-87
2022/06/14 10:45:28;;;;;;;;;;;;;;;25.02;60.56;100150.25;4393669;32;19985;-86
2022/06/14 10:48:12;;;;;;;;;;;;;;;25.17;60.56;100148.09;4379968;32;20283;-86
2022/06/14 10:50:44;;;;;;;;;;;;;;;25.13;60.55;100157.34;4393568;32;20001;-87
2022/06/14 10:53:28;;;;;;;;;;;;;;;25.36;60.57;100156.19;4379694;32;20001;-86
2022/06/14 10:56:09;;;;;;;;;;;;;;;25.62;60.59;100148.56;4404110;32;20024;-87
2022/06/14 10:58:47;;;;;;;;;;;;;;;25.84;60.59;100147.53;4379931;32;20049;-87
2022/06/14 11:01:31;;;;;;;;;;;;;;;25.70;60.59;100140.75;4393414;32;20320;-86
2022/06/14 11:04:11;;;;;;;;;;;;;;;25.54;60.58;100134.22;4393758;32;20376;-87
2022/06/14 11:06:52;;;;;;;;;;;;;;;25.82;60.59;100138.00;4389805;32;19997;-86
2022/06/14 11:09:32;;;;;;;;;;;;;;;25.74;60.59;100151.12;4389045;32;19986;-86
2022/06/14 11:12:00;;;;;;;;;;;;;;;25.78;60.60;100136.56;4404076;32;20025;-86
2022/06/14 11:14:31;;;;;;;;;;;;;;;25.51;60.58;100143.31;4393374;32;19974;-86
2022/06/14 11:17:07;;;;;;;;;;;;;;;25.60;60.58;100137.19;4379550;32;19982;-87
2022/06/14 11:19:32;;;;;;;;;;;;;;;25.62;60.59;100145.91;4379683;32;20045;-86
2022/06/14 11:22:01;;;;;;;;;;;;;;;25.82;60.59;100144.16;4390984;32;20017;-87
2022/06/14 11:24:35;;;;;;;;;;;;;;;25.80;60.60;100140.78;4379367;32;19985;-87
2022/06/14 11:27:00;;;;;;;;;;;;;;;26.08;60.61;100140.97;4393181;32;20299;-87
2022/06/14 11:29:28;;;;;;;;;;;;;;;26.12;60.61;100148.56;4389409;32;20114;-87
2022/06/14 11:32:02;;;;;;;;;;;;;;;26.08;60.61;100144.50;4388697;32;19986;-87
2022/06/14 11:34:31;;;;;;;;;;;;;;;26.21;60.61;100146.88;4379757;32;20035;-86
2022/06/14 11:37:06;;;;;;;;;;;;;;;26.47;60.63;100132.00;4389347;32;20484;-87
2022/06/14 11:39:33;;;;;;;;;;;;;;;26.55;60.64;100144.69;4381952;32;20005;-87
2022/06/14 11:42:00;;;;;;;;;;;;;;;26.57;60.64;100140.88;4379344;32;20479;-86
2022/06/14 11:44:25;;;;;;;;;;;;;;;27.05;60.66;100133.78;4379376;32;19975;-86
2022/06/14 11:46:58;;;;;;;;;;;;;;;27.11;60.67;100131.38;4389277;32;20001;-86
2022/06/14 11:49:24;;;;;;;;;;;;;;;27.11;60.66;100143.88;4391700;32;20103;-87
2022/06/14 11:51:58;;;;;;;;;;;;;;;27.05;60.66;100129.28;4393232;32;19990;-86
2022/06/14 11:54:31;;;;;;;;;;;;;;;26.78;60.64;100140.72;4392857;32;20414;-86
2022/06/14 11:57:16;;;;;;;;;;;;;;;26.82;60.65;100144.78;4366860;32;20004;-87
2022/06/14 11:59:42;;;;;;;;;;;;;;;26.14;60.61;100151.09;4393306;32;20017;-87
2022/06/14 12:02:10;;;;;;;;;;;;;;;25.30;60.58;100155.84;4393295;32;19991;-86
2022/06/14 12:04:41;;;;;;;;;;;;;;;25.50;60.58;100149.63;4392884;32;20046;-86
2022/06/14 12:07:28;;;;;;;;;;;;;;;25.51;60.58;100148.66;4393176;32;20030;-86
2022/06/14 12:09:54;;;;;;;;;;;;;;;25.68;60.59;100147.22;4379793;32;20066;-86
2022/06/14 12:12:25;;;;;;;;;;;;;;;25.74;60.59;100145.81;4403310;32;20346;-86
2022/06/14 12:14:53;;;;;;;;;;;;;;;25.88;60.60;100135.59;4379205;32;20032;-86
2022/06/14 12:17:20;;;;;;;;;;;;;;;25.83;60.59;100137.00;4388998;32;19994;-86
2022/06/14 12:20:06;;;;;;;;;;;;;;;26.14;60.61;100138.59;4385741;32;20572;-86
2022/06/14 12:22:37;;;;;;;;;;;;;;;26.43;60.63;100130.62;4382196;32;20048;-86
2022/06/14 12:27:49;;;;;;;;;;;;;;;26.73;60.64;100126.06;4383093;32;20077;-86
2022/06/14 12:30:15;;;;;;;;;;;;;;;26.71;60.65;100120.88;4378973;32;19999;-86
2022/06/14 12:32:46;;;;;;;;;;;;;;;26.55;60.64;100136.66;4379175;32;20015;-86
2022/06/14 12:35:12;;;;;;;;;;;;;;;26.48;60.64;100124.84;4378983;32;19993;-86
2022/06/14 12:37:54;;;;;;;;;;;;;;;26.50;60.64;100121.06;4378955;32;19996;-86
2022/06/14 12:40:35;;;;;;;;;;;;;;;26.45;60.63;100131.31;4379010;32;19998;-87
2022/06/14 12:43:21;;;;;;;;;;;;;;;26.31;60.63;100124.56;4388454;32;20002;-86
2022/06/14 12:45:49;;;;;;;;;;;;;;;26.14;60.61;100116.41;4388438;32;20056;-86
2022/06/14 12:48:17;;;;;;;;;;;;;;;26.15;60.61;100123.44;4392768;32;19966;-86
2022/06/14 12:50:49;;;;;;;;;;;;;;;26.07;60.62;100121.47;4378865;32;20016;-86
2022/06/14 12:53:24;;;;;;;;;;;;;;;26.01;60.61;100127.31;4392855;32;20315;-86
2022/06/14 12:55:52;;;;;;;;;;;;;;;26.04;60.61;100123.56;4392436;32;19971;-86
2022/06/14 12:58:17;;;;;;;;;;;;;;;25.92;60.61;100121.00;4379338;32;20028;-86
2022/06/14 13:00:54;;;;;;;;;;;;;;;25.96;60.60;100124.25;4392717;32;20545;-86
2022/06/14 13:03:24;;;;;;;;;;;;;;;26.05;60.61;100119.91;4378959;32;20029;-86
2022/06/14 13:05:51;;;;;;;;;;;;;;;25.91;60.60;100114.00;4378880;32;20587;-87
2022/06/14 13:08:16;;;;;;;;;;;;;;;26.05;60.61;100111.91;4366209;32;19994;-86
2022/06/14 13:10:44;;;;;;;;;;;;;;;25.93;60.61;100105.84;4391282;32;19991;-85
2022/06/14 13:13:13;;;;;;;;;;;;;;;25.80;60.60;100098.13;4378874;32;20057;-87
2022/06/14 13:15:50;;;;;;;;;;;;;;;25.56;60.59;100094.97;4392678;32;20287;-87